sensor_id;sensor_type;location;lat;lon;timestamp;temperature;humidity
1307;DHT22;646;48.696;9.114;2022-08-01T00:01:02;17.40;99.90
1307;DHT22;646;48.696;9.114;2022-08-01T00:03:28;17.30;99.90
1307;DHT22;646;48.696;9.114;2022-08-01T00:05:53;17.60;99.90
1307;DHT22;646;48.696;9.114;2022-08-01T00:08:19;17.40;99.90
1307;DHT22;646;48.696;9.114;2022-08-01T00:10:44;17.50;99.90
1307;DHT22;646;48.696;9.114;2022-08-01T00:13:10;17.60;99.90
1307;DHT22;646;48.696;9.114;2022-08-01T00:15:36;17.40;99.90
1307;DHT22;646;48.696;9.114;2022-08-01T00:18:01;17.40;99.90
1307;DHT22;646;48.696;9.114;2022-08-01T00:20:27;17.50;99.90
1307;DHT22;646;48.696;9.114;2022-08-01T00:22:52;17.60;99.90
1307;DHT22;646;48.696;9.114;2022-08-01T00:25:18;17.10;99.90
1307;DHT22;646;48.696;9.114;2022-08-01T00:27:43;17.30;99.90
1307;DHT22;646;48.696;9.114;2022-08-01T00:30:09;17.30;99.90
1307;DHT22;646;48.696;9.114;2022-08-01T00:32:34;17.50;99.90
1307;DHT22;646;48.696;9.114;2022-08-01T00:35:00;17.10;99.90
1307;DHT22;646;48.696;9.114;2022-08-01T00:37:26;17.40;99.90
1307;DHT22;646;48.696;9.114;2022-08-01T00:39:51;17.40;99.90
1307;DHT22;646;48.696;9.114;2022-08-01T00:42:17;17.40;99.90
1307;DHT22;646;48.696;9.114;2022-08-01T00:44:42;17.40;99.90
1307;DHT22;646;48.696;9.114;2022-08-01T00:47:08;17.30;99.90
1307;DHT22;646;48.696;9.114;2022-08-01T00:49:34;17.20;99.90
1307;DHT22;646;48.696;9.114;2022-08-01T00:52:00;17.50;99.90
1307;DHT22;646;48.696;9.114;2022-08-01T00:54:26;17.20;99.90
1307;DHT22;646;48.696;9.114;2022-08-01T00:56:54;16.90;99.90
1307;DHT22;646;48.696;9.114;2022-08-01T00:59:21;17.40;99.90
1307;DHT22;646;48.696;9.114;2022-08-01T01:01:47;17.20;99.90
1307;DHT22;646;48.696;9.114;2022-08-01T01:04:13;17.30;99.90
1307;DHT22;646;48.696;9.114;2022-08-01T01:10:00;17.20;99.90
1307;DHT22;646;48.696;9.114;2022-08-01T01:12:53;17.40;99.90
1307;DHT22;646;48.696;9.114;2022-08-01T01:20:41;17.10;99.90
1307;DHT22;646;48.696;9.114;2022-08-01T01:26:21;17.10;99.90
1307;DHT22;646;48.696;9.114;2022-08-01T01:29:04;17.30;99.90
1307;DHT22;646;48.696;9.114;2022-08-01T01:31:35;17.20;99.90
1307;DHT22;646;48.696;9.114;2022-08-01T01:34:03;17.30;99.90
1307;DHT22;646;48.696;9.114;2022-08-01T01:36:30;17.10;99.90
1307;DHT22;646;48.696;9.114;2022-08-01T01:38:57;17.10;99.90
1307;DHT22;646;48.696;9.114;2022-08-01T01:41:24;17.00;99.90
1307;DHT22;646;48.696;9.114;2022-08-01T01:43:51;17.00;99.90
1307;DHT22;646;48.696;9.114;2022-08-01T01:46:22;16.80;99.90
1307;DHT22;646;48.696;9.114;2022-08-01T01:48:48;17.00;99.90
1307;DHT22;646;48.696;9.114;2022-08-01T01:51:15;17.00;99.90
1307;DHT22;646;48.696;9.114;2022-08-01T01:53:41;17.00;99.90
1307;DHT22;646;48.696;9.114;2022-08-01T01:56:09;17.00;99.90
1307;DHT22;646;48.696;9.114;2022-08-01T01:58:35;17.20;99.90
1307;DHT22;646;48.696;9.114;2022-08-01T02:01:04;16.80;99.90
1307;DHT22;646;48.696;9.114;2022-08-01T02:03:32;17.00;99.90
1307;DHT22;646;48.696;9.114;2022-08-01T02:06:02;17.00;99.90
1307;DHT22;646;48.696;9.114;2022-08-01T02:08:29;16.70;99.90
1307;DHT22;646;48.696;9.114;2022-08-01T02:10:56;16.80;99.90
1307;DHT22;646;48.696;9.114;2022-08-01T02:13:42;16.60;99.90
1307;DHT22;646;48.696;9.114;2022-08-01T02:16:08;16.80;99.90
1307;DHT22;646;48.696;9.114;2022-08-01T02:18:36;16.70;99.90
1307;DHT22;646;48.696;9.114;2022-08-01T02:21:04;16.70;99.90
1307;DHT22;646;48.696;9.114;2022-08-01T02:23:32;16.70;99.90
1307;DHT22;646;48.696;9.114;2022-08-01T02:26:00;16.80;99.90
1307;DHT22;646;48.696;9.114;2022-08-01T02:28:38;16.90;99.90
1307;DHT22;646;48.696;9.114;2022-08-01T02:31:09;16.70;99.90
1307;DHT22;646;48.696;9.114;2022-08-01T02:33:40;16.50;99.90
1307;DHT22;646;48.696;9.114;2022-08-01T02:36:07;16.60;99.90
1307;DHT22;646;48.696;9.114;2022-08-01T02:38:36;16.50;99.90
1307;DHT22;646;48.696;9.114;2022-08-01T02:41:08;16.50;99.90
1307;DHT22;646;48.696;9.114;2022-08-01T02:43:36;16.60;99.90
1307;DHT22;646;48.696;9.114;2022-08-01T02:46:03;16.30;99.90
1307;DHT22;646;48.696;9.114;2022-08-01T02:48:33;16.60;99.90
1307;DHT22;646;48.696;9.114;2022-08-01T02:51:01;16.50;99.90
1307;DHT22;646;48.696;9.114;2022-08-01T02:53:31;16.50;99.90
1307;DHT22;646;48.696;9.114;2022-08-01T02:55:58;16.50;99.90
1307;DHT22;646;48.696;9.114;2022-08-01T02:58:25;16.40;99.90
1307;DHT22;646;48.696;9.114;2022-08-01T03:00:51;16.50;99.90
1307;DHT22;646;48.696;9.114;2022-08-01T03:03:18;16.40;99.90
1307;DHT22;646;48.696;9.114;2022-08-01T03:05:45;16.10;99.90
1307;DHT22;646;48.696;9.114;2022-08-01T03:08:11;16.40;99.90
1307;DHT22;646;48.696;9.114;2022-08-01T03:10:40;16.10;99.90
1307;DHT22;646;48.696;9.114;2022-08-01T03:13:08;16.30;99.90
1307;DHT22;646;48.696;9.114;2022-08-01T03:15:38;16.10;99.90
1307;DHT22;646;48.696;9.114;2022-08-01T03:18:06;16.20;99.90
1307;DHT22;646;48.696;9.114;2022-08-01T03:20:33;16.10;99.90
1307;DHT22;646;48.696;9.114;2022-08-01T03:23:02;16.10;99.90
1307;DHT22;646;48.696;9.114;2022-08-01T03:25:29;16.10;99.90
1307;DHT22;646;48.696;9.114;2022-08-01T03:27:59;15.90;99.90
1307;DHT22;646;48.696;9.114;2022-08-01T03:30:27;16.00;99.90
1307;DHT22;646;48.696;9.114;2022-08-01T03:32:54;16.00;99.90
1307;DHT22;646;48.696;9.114;2022-08-01T03:35:22;15.80;99.90
1307;DHT22;646;48.696;9.114;2022-08-01T03:37:52;16.00;99.90
1307;DHT22;646;48.696;9.114;2022-08-01T03:40:36;15.70;99.90
1307;DHT22;646;48.696;9.114;2022-08-01T03:43:05;15.70;99.90
1307;DHT22;646;48.696;9.114;2022-08-01T03:45:36;15.70;99.90
1307;DHT22;646;48.696;9.114;2022-08-01T03:48:09;15.60;99.90
1307;DHT22;646;48.696;9.114;2022-08-01T03:50:36;15.60;99.90
1307;DHT22;646;48.696;9.114;2022-08-01T03:53:05;15.70;99.90
1307;DHT22;646;48.696;9.114;2022-08-01T03:55:33;15.50;99.90
1307;DHT22;646;48.696;9.114;2022-08-01T03:58:00;15.80;99.90
1307;DHT22;646;48.696;9.114;2022-08-01T04:00:27;15.80;99.90
1307;DHT22;646;48.696;9.114;2022-08-01T04:02:53;15.80;99.90
1307;DHT22;646;48.696;9.114;2022-08-01T04:05:19;15.80;99.90
1307;DHT22;646;48.696;9.114;2022-08-01T04:07:47;15.90;99.90
1307;DHT22;646;48.696;9.114;2022-08-01T04:10:13;15.40;99.90
1307;DHT22;646;48.696;9.114;2022-08-01T04:12:38;15.70;99.90
1307;DHT22;646;48.696;9.114;2022-08-01T04:15:05;15.70;99.90
1307;DHT22;646;48.696;9.114;2022-08-01T04:17:31;15.70;99.90
1307;DHT22;646;48.696;9.114;2022-08-01T04:19:56;15.90;99.90
1307;DHT22;646;48.696;9.114;2022-08-01T04:22:22;15.60;99.90
1307;DHT22;646;48.696;9.114;2022-08-01T04:24:49;15.90;99.90
1307;DHT22;646;48.696;9.114;2022-08-01T04:27:19;15.80;99.90
1307;DHT22;646;48.696;9.114;2022-08-01T04:29:47;15.90;99.90
1307;DHT22;646;48.696;9.114;2022-08-01T04:32:16;16.00;99.90
1307;DHT22;646;48.696;9.114;2022-08-01T04:34:44;15.80;99.90
1307;DHT22;646;48.696;9.114;2022-08-01T04:37:12;16.00;99.90
1307;DHT22;646;48.696;9.114;2022-08-01T04:39:41;15.90;99.90
1307;DHT22;646;48.696;9.114;2022-08-01T04:42:08;15.90;99.90
1307;DHT22;646;48.696;9.114;2022-08-01T04:44:34;15.80;99.90
1307;DHT22;646;48.696;9.114;2022-08-01T04:47:01;16.00;99.90
1307;DHT22;646;48.696;9.114;2022-08-01T04:49:30;16.20;99.90
1307;DHT22;646;48.696;9.114;2022-08-01T04:51:56;16.00;99.90
1307;DHT22;646;48.696;9.114;2022-08-01T04:54:30;16.00;99.90
1307;DHT22;646;48.696;9.114;2022-08-01T04:56:58;16.50;99.90
1307;DHT22;646;48.696;9.114;2022-08-01T04:59:28;16.10;99.90
1307;DHT22;646;48.696;9.114;2022-08-01T05:02:07;16.20;99.90
1307;DHT22;646;48.696;9.114;2022-08-01T05:04:33;16.60;99.90
1307;DHT22;646;48.696;9.114;2022-08-01T05:06:59;16.50;99.90
1307;DHT22;646;48.696;9.114;2022-08-01T05:09:25;16.50;99.90
1307;DHT22;646;48.696;9.114;2022-08-01T05:11:51;16.60;99.90
1307;DHT22;646;48.696;9.114;2022-08-01T05:14:17;16.80;99.90
1307;DHT22;646;48.696;9.114;2022-08-01T05:16:42;17.10;99.90
1307;DHT22;646;48.696;9.114;2022-08-01T05:19:08;17.00;99.90
1307;DHT22;646;48.696;9.114;2022-08-01T05:21:34;17.10;99.90
1307;DHT22;646;48.696;9.114;2022-08-01T05:24:00;17.80;99.90
1307;DHT22;646;48.696;9.114;2022-08-01T05:26:26;17.90;99.90
1307;DHT22;646;48.696;9.114;2022-08-01T05:28:51;18.30;99.90
1307;DHT22;646;48.696;9.114;2022-08-01T05:31:17;18.90;99.90
1307;DHT22;646;48.696;9.114;2022-08-01T05:33:42;19.10;99.90
1307;DHT22;646;48.696;9.114;2022-08-01T05:36:08;19.50;99.90
1307;DHT22;646;48.696;9.114;2022-08-01T05:38:33;19.70;99.90
1307;DHT22;646;48.696;9.114;2022-08-01T05:40:59;19.60;99.90
1307;DHT22;646;48.696;9.114;2022-08-01T05:43:24;19.90;99.90
1307;DHT22;646;48.696;9.114;2022-08-01T05:45:50;19.40;99.90
1307;DHT22;646;48.696;9.114;2022-08-01T05:48:16;19.90;99.90
1307;DHT22;646;48.696;9.114;2022-08-01T05:50:41;20.30;99.90
1307;DHT22;646;48.696;9.114;2022-08-01T05:53:07;21.10;99.90
1307;DHT22;646;48.696;9.114;2022-08-01T05:55:32;21.20;99.90
1307;DHT22;646;48.696;9.114;2022-08-01T05:57:58;21.90;99.90
1307;DHT22;646;48.696;9.114;2022-08-01T06:00:23;22.60;99.90
1307;DHT22;646;48.696;9.114;2022-08-01T06:02:49;22.80;99.30
1307;DHT22;646;48.696;9.114;2022-08-01T06:05:15;23.40;97.60
1307;DHT22;646;48.696;9.114;2022-08-01T06:07:40;24.30;96.30
1307;DHT22;646;48.696;9.114;2022-08-01T06:10:07;24.40;94.00
1307;DHT22;646;48.696;9.114;2022-08-01T06:12:33;25.10;91.90
1307;DHT22;646;48.696;9.114;2022-08-01T06:14:59;25.60;85.40
1307;DHT22;646;48.696;9.114;2022-08-01T06:17:25;25.80;80.60
1307;DHT22;646;48.696;9.114;2022-08-01T06:19:50;25.90;76.80
1307;DHT22;646;48.696;9.114;2022-08-01T06:22:16;25.80;76.30
1307;DHT22;646;48.696;9.114;2022-08-01T06:24:41;26.00;75.50
1307;DHT22;646;48.696;9.114;2022-08-01T06:27:07;25.60;72.20
1307;DHT22;646;48.696;9.114;2022-08-01T06:29:32;25.70;72.50
1307;DHT22;646;48.696;9.114;2022-08-01T06:31:58;25.60;72.80
1307;DHT22;646;48.696;9.114;2022-08-01T06:34:24;25.40;72.20
1307;DHT22;646;48.696;9.114;2022-08-01T06:36:49;25.60;74.70
1307;DHT22;646;48.696;9.114;2022-08-01T06:39:15;25.30;76.40
1307;DHT22;646;48.696;9.114;2022-08-01T06:41:40;25.20;73.50
1307;DHT22;646;48.696;9.114;2022-08-01T06:44:12;25.10;73.10
1307;DHT22;646;48.696;9.114;2022-08-01T06:46:37;25.40;72.10
1307;DHT22;646;48.696;9.114;2022-08-01T06:49:03;25.40;70.60
1307;DHT22;646;48.696;9.114;2022-08-01T06:51:29;25.10;70.50
1307;DHT22;646;48.696;9.114;2022-08-01T06:53:54;25.20;70.80
1307;DHT22;646;48.696;9.114;2022-08-01T06:56:20;25.20;70.40
1307;DHT22;646;48.696;9.114;2022-08-01T06:58:46;24.90;69.50
1307;DHT22;646;48.696;9.114;2022-08-01T07:01:12;24.80;70.60
1307;DHT22;646;48.696;9.114;2022-08-01T07:03:38;24.80;71.60
1307;DHT22;646;48.696;9.114;2022-08-01T07:06:04;24.70;72.80
1307;DHT22;646;48.696;9.114;2022-08-01T07:08:29;24.40;72.00
1307;DHT22;646;48.696;9.114;2022-08-01T07:10:55;24.80;72.30
1307;DHT22;646;48.696;9.114;2022-08-01T07:13:21;24.60;71.00
1307;DHT22;646;48.696;9.114;2022-08-01T07:15:50;24.40;67.40
1307;DHT22;646;48.696;9.114;2022-08-01T07:18:16;24.30;67.10
1307;DHT22;646;48.696;9.114;2022-08-01T07:20:41;24.30;67.80
1307;DHT22;646;48.696;9.114;2022-08-01T07:23:07;24.00;68.00
1307;DHT22;646;48.696;9.114;2022-08-01T07:25:32;24.30;68.40
1307;DHT22;646;48.696;9.114;2022-08-01T07:27:58;24.20;69.50
1307;DHT22;646;48.696;9.114;2022-08-01T07:30:23;24.10;70.00
1307;DHT22;646;48.696;9.114;2022-08-01T07:32:49;24.30;69.40
1307;DHT22;646;48.696;9.114;2022-08-01T07:35:14;24.20;69.10
1307;DHT22;646;48.696;9.114;2022-08-01T07:37:40;24.20;68.90
1307;DHT22;646;48.696;9.114;2022-08-01T07:40:06;24.00;68.50
1307;DHT22;646;48.696;9.114;2022-08-01T07:42:32;23.70;68.50
1307;DHT22;646;48.696;9.114;2022-08-01T07:44:57;24.00;67.90
1307;DHT22;646;48.696;9.114;2022-08-01T07:47:24;24.00;67.20
1307;DHT22;646;48.696;9.114;2022-08-01T07:49:50;24.30;67.70
1307;DHT22;646;48.696;9.114;2022-08-01T07:52:16;24.20;67.80
1307;DHT22;646;48.696;9.114;2022-08-01T07:54:42;24.40;67.50
1307;DHT22;646;48.696;9.114;2022-08-01T07:57:07;24.30;67.40
1307;DHT22;646;48.696;9.114;2022-08-01T07:59:33;24.40;67.70
1307;DHT22;646;48.696;9.114;2022-08-01T08:01:59;24.40;66.00
1307;DHT22;646;48.696;9.114;2022-08-01T08:04:25;24.50;65.80
1307;DHT22;646;48.696;9.114;2022-08-01T08:06:51;24.70;66.30
1307;DHT22;646;48.696;9.114;2022-08-01T08:09:18;24.70;64.80
1307;DHT22;646;48.696;9.114;2022-08-01T08:11:44;25.00;64.10
1307;DHT22;646;48.696;9.114;2022-08-01T08:14:10;25.40;63.40
1307;DHT22;646;48.696;9.114;2022-08-01T08:16:36;25.60;62.90
1307;DHT22;646;48.696;9.114;2022-08-01T08:19:02;25.60;59.80
1307;DHT22;646;48.696;9.114;2022-08-01T08:21:27;25.90;60.00
1307;DHT22;646;48.696;9.114;2022-08-01T08:23:53;25.80;60.00
1307;DHT22;646;48.696;9.114;2022-08-01T08:26:38;26.10;60.30
1307;DHT22;646;48.696;9.114;2022-08-01T08:29:03;26.30;59.30
1307;DHT22;646;48.696;9.114;2022-08-01T08:31:29;26.70;57.80
1307;DHT22;646;48.696;9.114;2022-08-01T08:33:54;26.90;57.50
1307;DHT22;646;48.696;9.114;2022-08-01T08:36:20;26.90;57.90
1307;DHT22;646;48.696;9.114;2022-08-01T08:38:46;26.80;56.50
1307;DHT22;646;48.696;9.114;2022-08-01T08:41:12;26.80;57.10
1307;DHT22;646;48.696;9.114;2022-08-01T08:43:38;26.90;57.60
1307;DHT22;646;48.696;9.114;2022-08-01T08:46:05;27.10;55.90
1307;DHT22;646;48.696;9.114;2022-08-01T08:48:34;27.30;56.10
1307;DHT22;646;48.696;9.114;2022-08-01T08:51:00;27.70;56.10
1307;DHT22;646;48.696;9.114;2022-08-01T08:53:27;28.20;55.00
1307;DHT22;646;48.696;9.114;2022-08-01T08:55:53;28.40;53.00
1307;DHT22;646;48.696;9.114;2022-08-01T08:58:20;28.30;52.00
1307;DHT22;646;48.696;9.114;2022-08-01T09:00:46;28.90;52.70
1307;DHT22;646;48.696;9.114;2022-08-01T09:03:12;29.80;51.80
1307;DHT22;646;48.696;9.114;2022-08-01T09:05:38;30.80;48.70
1307;DHT22;646;48.696;9.114;2022-08-01T09:08:06;32.20;46.60
1307;DHT22;646;48.696;9.114;2022-08-01T09:10:32;33.40;43.40
1307;DHT22;646;48.696;9.114;2022-08-01T09:13:03;33.70;42.00
1307;DHT22;646;48.696;9.114;2022-08-01T09:15:45;33.70;40.50
1307;DHT22;646;48.696;9.114;2022-08-01T09:18:31;33.30;39.80
1307;DHT22;646;48.696;9.114;2022-08-01T09:23:47;32.20;41.70
1307;DHT22;646;48.696;9.114;2022-08-01T09:26:16;31.90;42.30
1307;DHT22;646;48.696;9.114;2022-08-01T09:28:43;31.70;44.20
1307;DHT22;646;48.696;9.114;2022-08-01T09:31:17;32.20;45.60
1307;DHT22;646;48.696;9.114;2022-08-01T09:33:57;33.80;44.40
1307;DHT22;646;48.696;9.114;2022-08-01T09:36:44;35.50;40.90
1307;DHT22;646;48.696;9.114;2022-08-01T09:39:14;35.60;36.80
1307;DHT22;646;48.696;9.114;2022-08-01T09:41:40;35.00;36.90
1307;DHT22;646;48.696;9.114;2022-08-01T09:44:06;34.60;37.50
1307;DHT22;646;48.696;9.114;2022-08-01T09:46:31;35.50;37.20
1307;DHT22;646;48.696;9.114;2022-08-01T09:49:06;36.70;35.30
1307;DHT22;646;48.696;9.114;2022-08-01T09:51:34;37.60;33.80
1307;DHT22;646;48.696;9.114;2022-08-01T09:54:01;37.60;32.70
1307;DHT22;646;48.696;9.114;2022-08-01T09:56:36;37.10;32.10
1307;DHT22;646;48.696;9.114;2022-08-01T09:59:02;37.40;33.00
1307;DHT22;646;48.696;9.114;2022-08-01T10:01:50;37.30;33.10
1307;DHT22;646;48.696;9.114;2022-08-01T10:04:20;36.60;33.50
1307;DHT22;646;48.696;9.114;2022-08-01T10:06:48;35.90;33.90
1307;DHT22;646;48.696;9.114;2022-08-01T10:09:27;35.00;34.80
1307;DHT22;646;48.696;9.114;2022-08-01T10:11:54;34.20;36.70
1307;DHT22;646;48.696;9.114;2022-08-01T10:14:21;34.50;38.30
1307;DHT22;646;48.696;9.114;2022-08-01T10:16:49;35.00;36.40
1307;DHT22;646;48.696;9.114;2022-08-01T10:19:16;34.50;35.40
1307;DHT22;646;48.696;9.114;2022-08-01T10:21:43;33.90;37.00
1307;DHT22;646;48.696;9.114;2022-08-01T10:24:15;34.10;39.20
1307;DHT22;646;48.696;9.114;2022-08-01T10:26:41;35.40;38.40
1307;DHT22;646;48.696;9.114;2022-08-01T10:29:08;36.90;35.60
1307;DHT22;646;48.696;9.114;2022-08-01T10:31:34;37.40;33.20
1307;DHT22;646;48.696;9.114;2022-08-01T10:34:00;37.40;32.80
1307;DHT22;646;48.696;9.114;2022-08-01T10:36:27;37.10;32.50
1307;DHT22;646;48.696;9.114;2022-08-01T10:38:54;36.10;33.00
1307;DHT22;646;48.696;9.114;2022-08-01T10:41:21;36.30;37.20
1307;DHT22;646;48.696;9.114;2022-08-01T10:43:46;37.80;34.30
1307;DHT22;646;48.696;9.114;2022-08-01T10:46:12;39.40;32.90
1307;DHT22;646;48.696;9.114;2022-08-01T10:48:47;41.00;30.20
1307;DHT22;646;48.696;9.114;2022-08-01T10:51:15;42.40;27.70
1307;DHT22;646;48.696;9.114;2022-08-01T10:53:52;43.50;24.60
1307;DHT22;646;48.696;9.114;2022-08-01T10:56:18;44.20;24.70
1307;DHT22;646;48.696;9.114;2022-08-01T10:58:46;44.70;24.70
1307;DHT22;646;48.696;9.114;2022-08-01T11:03:42;46.50;22.40
1307;DHT22;646;48.696;9.114;2022-08-01T11:06:16;46.10;22.40
1307;DHT22;646;48.696;9.114;2022-08-01T11:08:43;45.10;23.00
1307;DHT22;646;48.696;9.114;2022-08-01T11:11:15;44.00;23.30
1307;DHT22;646;48.696;9.114;2022-08-01T11:16:36;40.70;25.90
1307;DHT22;646;48.696;9.114;2022-08-01T11:19:04;39.10;27.50
1307;DHT22;646;48.696;9.114;2022-08-01T11:32:54;33.20;36.60
1307;DHT22;646;48.696;9.114;2022-08-01T11:35:24;32.60;38.20
1307;DHT22;646;48.696;9.114;2022-08-01T11:37:53;32.10;40.00
1307;DHT22;646;48.696;9.114;2022-08-01T11:40:25;31.60;40.80
1307;DHT22;646;48.696;9.114;2022-08-01T11:45:51;30.70;42.70
1307;DHT22;646;48.696;9.114;2022-08-01T11:48:25;30.40;43.70
1307;DHT22;646;48.696;9.114;2022-08-01T11:50:52;30.00;45.10
1307;DHT22;646;48.696;9.114;2022-08-01T11:53:18;29.70;45.80
1307;DHT22;646;48.696;9.114;2022-08-01T11:55:52;29.50;45.40
1307;DHT22;646;48.696;9.114;2022-08-01T11:58:23;29.30;46.70
1307;DHT22;646;48.696;9.114;2022-08-01T12:00:51;29.10;46.80
1307;DHT22;646;48.696;9.114;2022-08-01T12:03:30;28.80;47.60
1307;DHT22;646;48.696;9.114;2022-08-01T12:05:58;28.70;48.10
1307;DHT22;646;48.696;9.114;2022-08-01T12:08:28;28.60;48.30
1307;DHT22;646;48.696;9.114;2022-08-01T12:10:54;28.40;48.00
1307;DHT22;646;48.696;9.114;2022-08-01T12:13:20;28.30;48.60
1307;DHT22;646;48.696;9.114;2022-08-01T12:15:47;28.30;49.30
1307;DHT22;646;48.696;9.114;2022-08-01T12:18:13;28.20;49.70
1307;DHT22;646;48.696;9.114;2022-08-01T12:20:40;28.20;49.10
1307;DHT22;646;48.696;9.114;2022-08-01T12:23:09;28.10;49.30
1307;DHT22;646;48.696;9.114;2022-08-01T12:25:37;28.20;49.80
1307;DHT22;646;48.696;9.114;2022-08-01T12:28:07;29.20;50.90
1307;DHT22;646;48.696;9.114;2022-08-01T12:30:34;31.80;48.40
1307;DHT22;646;48.696;9.114;2022-08-01T12:33:06;35.00;40.80
1307;DHT22;646;48.696;9.114;2022-08-01T12:35:32;37.90;36.20
1307;DHT22;646;48.696;9.114;2022-08-01T12:38:00;39.70;31.00
1307;DHT22;646;48.696;9.114;2022-08-01T12:40:31;41.40;29.30
1307;DHT22;646;48.696;9.114;2022-08-01T12:43:02;42.20;26.80
1307;DHT22;646;48.696;9.114;2022-08-01T12:45:33;41.40;26.40
1307;DHT22;646;48.696;9.114;2022-08-01T12:47:59;39.90;26.70
1307;DHT22;646;48.696;9.114;2022-08-01T12:50:28;38.50;27.90
1307;DHT22;646;48.696;9.114;2022-08-01T12:52:55;37.20;29.80
1307;DHT22;646;48.696;9.114;2022-08-01T12:55:23;36.20;31.60
1307;DHT22;646;48.696;9.114;2022-08-01T12:58:06;35.90;34.00
1307;DHT22;646;48.696;9.114;2022-08-01T13:00:33;36.50;34.00
1307;DHT22;646;48.696;9.114;2022-08-01T13:03:05;36.40;32.20
1307;DHT22;646;48.696;9.114;2022-08-01T13:06:00;36.20;32.90
1307;DHT22;646;48.696;9.114;2022-08-01T13:11:05;39.20;30.30
1307;DHT22;646;48.696;9.114;2022-08-01T13:13:48;41.20;28.40
1307;DHT22;646;48.696;9.114;2022-08-01T13:16:18;42.90;26.50
1307;DHT22;646;48.696;9.114;2022-08-01T13:18:52;43.50;24.00
1307;DHT22;646;48.696;9.114;2022-08-01T13:21:23;42.20;24.00
1307;DHT22;646;48.696;9.114;2022-08-01T13:29:17;37.40;28.60
1307;DHT22;646;48.696;9.114;2022-08-01T13:31:43;36.20;30.10
1307;DHT22;646;48.696;9.114;2022-08-01T13:34:10;35.20;31.60
1307;DHT22;646;48.696;9.114;2022-08-01T13:36:36;34.40;33.00
1307;DHT22;646;48.696;9.114;2022-08-01T13:39:03;34.00;34.50
1307;DHT22;646;48.696;9.114;2022-08-01T13:41:48;35.00;36.40
1307;DHT22;646;48.696;9.114;2022-08-01T13:44:13;37.70;34.00
1307;DHT22;646;48.696;9.114;2022-08-01T13:46:41;39.90;31.20
1307;DHT22;646;48.696;9.114;2022-08-01T13:49:08;41.70;26.80
1307;DHT22;646;48.696;9.114;2022-08-01T13:51:34;43.10;26.70
1307;DHT22;646;48.696;9.114;2022-08-01T13:53:59;43.20;24.50
1307;DHT22;646;48.696;9.114;2022-08-01T13:56:26;41.80;24.50
1307;DHT22;646;48.696;9.114;2022-08-01T13:58:53;40.20;26.30
1307;DHT22;646;48.696;9.114;2022-08-01T14:01:19;38.80;27.70
1307;DHT22;646;48.696;9.114;2022-08-01T14:03:45;38.00;28.70
1307;DHT22;646;48.696;9.114;2022-08-01T14:06:12;37.60;29.50
1307;DHT22;646;48.696;9.114;2022-08-01T14:08:37;36.80;29.90
1307;DHT22;646;48.696;9.114;2022-08-01T14:11:03;36.10;31.70
1307;DHT22;646;48.696;9.114;2022-08-01T14:13:28;35.60;33.10
1307;DHT22;646;48.696;9.114;2022-08-01T14:15:54;35.40;33.00
1307;DHT22;646;48.696;9.114;2022-08-01T14:18:19;35.20;33.00
1307;DHT22;646;48.696;9.114;2022-08-01T14:20:45;34.90;34.20
1307;DHT22;646;48.696;9.114;2022-08-01T14:23:11;34.90;35.00
1307;DHT22;646;48.696;9.114;2022-08-01T14:25:37;35.30;34.20
1307;DHT22;646;48.696;9.114;2022-08-01T14:28:03;36.70;33.50
1307;DHT22;646;48.696;9.114;2022-08-01T14:30:29;38.60;30.20
1307;DHT22;646;48.696;9.114;2022-08-01T14:32:54;40.20;26.70
1307;DHT22;646;48.696;9.114;2022-08-01T14:35:20;41.70;27.30
1307;DHT22;646;48.696;9.114;2022-08-01T14:37:45;42.70;24.90
1307;DHT22;646;48.696;9.114;2022-08-01T14:40:11;42.30;25.50
1307;DHT22;646;48.696;9.114;2022-08-01T14:42:38;42.40;25.50
1307;DHT22;646;48.696;9.114;2022-08-01T14:45:04;42.90;25.50
1307;DHT22;646;48.696;9.114;2022-08-01T14:47:35;42.60;24.20
1307;DHT22;646;48.696;9.114;2022-08-01T14:50:00;41.80;24.80
1307;DHT22;646;48.696;9.114;2022-08-01T14:52:26;41.80;26.20
1307;DHT22;646;48.696;9.114;2022-08-01T14:54:51;42.10;25.70
1307;DHT22;646;48.696;9.114;2022-08-01T14:57:17;42.30;25.70
1307;DHT22;646;48.696;9.114;2022-08-01T14:59:44;42.10;24.40
1307;DHT22;646;48.696;9.114;2022-08-01T15:02:09;41.10;24.80
1307;DHT22;646;48.696;9.114;2022-08-01T15:04:36;39.90;25.30
1307;DHT22;646;48.696;9.114;2022-08-01T15:07:02;39.50;26.90
1307;DHT22;646;48.696;9.114;2022-08-01T15:09:27;39.90;26.90
1307;DHT22;646;48.696;9.114;2022-08-01T15:11:53;40.40;26.40
1307;DHT22;646;48.696;9.114;2022-08-01T15:14:18;40.40;25.90
1307;DHT22;646;48.696;9.114;2022-08-01T15:17:02;39.60;26.80
1307;DHT22;646;48.696;9.114;2022-08-01T15:19:28;38.50;27.30
1307;DHT22;646;48.696;9.114;2022-08-01T15:21:53;37.40;28.30
1307;DHT22;646;48.696;9.114;2022-08-01T15:24:19;36.60;30.10
1307;DHT22;646;48.696;9.114;2022-08-01T15:26:44;36.20;31.10
1307;DHT22;646;48.696;9.114;2022-08-01T15:29:10;36.00;30.90
1307;DHT22;646;48.696;9.114;2022-08-01T15:31:35;35.50;31.50
1307;DHT22;646;48.696;9.114;2022-08-01T15:34:01;35.00;32.00
1307;DHT22;646;48.696;9.114;2022-08-01T15:36:26;34.60;33.20
1307;DHT22;646;48.696;9.114;2022-08-01T15:38:52;34.20;33.50
1307;DHT22;646;48.696;9.114;2022-08-01T15:41:18;33.90;34.80
1307;DHT22;646;48.696;9.114;2022-08-01T15:43:43;33.80;35.10
1307;DHT22;646;48.696;9.114;2022-08-01T15:46:09;33.50;35.70
1307;DHT22;646;48.696;9.114;2022-08-01T15:48:34;33.10;35.70
1307;DHT22;646;48.696;9.114;2022-08-01T15:51:00;32.80;36.40
1307;DHT22;646;48.696;9.114;2022-08-01T15:53:25;32.50;37.20
1307;DHT22;646;48.696;9.114;2022-08-01T15:55:50;32.20;37.70
1307;DHT22;646;48.696;9.114;2022-08-01T15:58:16;31.90;38.00
1307;DHT22;646;48.696;9.114;2022-08-01T16:00:42;31.60;38.60
1307;DHT22;646;48.696;9.114;2022-08-01T16:03:07;31.50;39.10
1307;DHT22;646;48.696;9.114;2022-08-01T16:05:34;31.20;40.30
1307;DHT22;646;48.696;9.114;2022-08-01T16:08:01;31.10;39.80
1307;DHT22;646;48.696;9.114;2022-08-01T16:10:27;30.90;40.10
1307;DHT22;646;48.696;9.114;2022-08-01T16:12:53;30.70;39.60
1307;DHT22;646;48.696;9.114;2022-08-01T16:15:18;30.50;40.60
1307;DHT22;646;48.696;9.114;2022-08-01T16:17:44;30.20;41.00
1307;DHT22;646;48.696;9.114;2022-08-01T16:20:10;29.90;41.60
1307;DHT22;646;48.696;9.114;2022-08-01T16:22:35;29.60;42.00
1307;DHT22;646;48.696;9.114;2022-08-01T16:25:02;29.30;42.50
1307;DHT22;646;48.696;9.114;2022-08-01T16:27:27;29.10;42.40
1307;DHT22;646;48.696;9.114;2022-08-01T16:29:55;28.90;43.50
1307;DHT22;646;48.696;9.114;2022-08-01T16:32:21;28.70;43.60
1307;DHT22;646;48.696;9.114;2022-08-01T16:34:46;28.60;44.20
1307;DHT22;646;48.696;9.114;2022-08-01T16:37:12;28.50;44.80
1307;DHT22;646;48.696;9.114;2022-08-01T16:39:37;28.40;45.40
1307;DHT22;646;48.696;9.114;2022-08-01T16:42:03;28.30;46.00
1307;DHT22;646;48.696;9.114;2022-08-01T16:44:28;28.20;46.00
1307;DHT22;646;48.696;9.114;2022-08-01T16:46:54;28.10;46.10
1307;DHT22;646;48.696;9.114;2022-08-01T16:49:19;27.90;46.60
1307;DHT22;646;48.696;9.114;2022-08-01T16:51:45;27.80;46.80
1307;DHT22;646;48.696;9.114;2022-08-01T16:54:10;27.70;46.80
1307;DHT22;646;48.696;9.114;2022-08-01T16:56:36;27.60;47.40
1307;DHT22;646;48.696;9.114;2022-08-01T16:59:01;27.50;47.10
1307;DHT22;646;48.696;9.114;2022-08-01T17:01:27;27.30;47.70